Time;durP1;ratioP1;P1;durP2;ratioP2;P2;SDS_P1;SDS_P2;PMS_P1;PMS_P2;Temp;Humidity;BMP_temperature;BMP_pressure;BME280_temperature;BME280_humidity;BME280_pressure;Samples;Min_cycle;Max_cycle;Signal;HPM_P1;HPM_P2
2023/07/09 00:02:21;;;;;;;3.53;2.53;;;;;;;20.60;100.00;102151.56;4977886;28;20221;-76
2023/07/09 00:04:47;;;;;;;6.30;2.87;;;;;;;20.49;100.00;102161.97;4979100;28;20478;-76
2023/07/09 00:07:29;;;;;;;6.00;3.03;;;;;;;20.50;100.00;102155.91;4978167;28;20750;-75
2023/07/09 00:09:55;;;;;;;3.77;2.60;;;;;;;20.43;100.00;102155.91;4981187;28;20274;-75
2023/07/09 00:12:22;;;;;;;4.23;2.83;;;;;;;20.47;100.00;102149.84;4980498;28;20290;-75
2023/07/09 00:14:47;;;;;;;5.43;2.73;;;;;;;20.40;100.00;102161.13;4980242;28;20243;-76
2023/07/09 00:17:28;;;;;;;7.63;2.83;;;;;;;20.33;100.00;102161.97;4981230;28;20216;-76
2023/07/09 00:19:54;;;;;;;8.00;2.80;;;;;;;20.26;100.00;102160.25;4977464;28;20249;-75
2023/07/09 00:22:20;;;;;;;4.37;3.03;;;;;;;20.26;100.00;102158.50;4977538;28;21654;-75
2023/07/09 00:24:50;;;;;;;5.70;3.00;;;;;;;20.29;100.00;102155.03;4980925;28;20200;-76
2023/07/09 00:27:18;;;;;;;4.63;3.27;;;;;;;20.28;100.00;102153.28;4980053;28;20200;-75
2023/07/09 00:29:43;;;;;;;5.30;2.70;;;;;;;20.30;100.00;102151.56;4976957;28;20216;-75
2023/07/09 00:32:20;;;;;;;4.03;2.87;;;;;;;20.24;100.00;102167.16;4975793;28;20192;-75
2023/07/09 00:34:48;;;;;;;3.53;2.33;;;;;;;20.21;100.00;102161.94;4980803;28;20745;-75
2023/07/09 00:37:19;;;;;;;3.50;2.83;;;;;;;20.19;100.00;102161.09;4977215;28;20220;-75
2023/07/09 00:39:45;;;;;;;6.57;2.80;;;;;;;20.17;100.00;102162.84;4970249;28;20315;-75
2023/07/09 00:42:17;;;;;;;3.67;3.00;;;;;;;20.07;100.00;102171.44;4971975;28;21059;-76
2023/07/09 00:44:49;;;;;;;5.17;2.77;;;;;;;20.11;100.00;102145.47;4976503;28;20189;-75
2023/07/09 00:47:33;;;;;;;4.87;2.63;;;;;;;20.10;100.00;102145.47;4977065;28;20203;-75
2023/07/09 00:50:10;;;;;;;3.17;2.40;;;;;;;20.04;100.00;102198.31;4976314;28;20598;-76
2023/07/09 00:52:45;;;;;;;4.13;3.03;;;;;;;19.87;100.00;102176.63;4981751;28;20196;-76
2023/07/09 00:55:16;;;;;;;4.67;2.40;;;;;;;19.91;100.00;102167.97;4980792;28;20198;-76
2023/07/09 00:57:45;;;;;;;3.43;2.90;;;;;;;19.85;100.00;102164.47;4997658;28;20269;-76
2023/07/09 01:00:14;;;;;;;3.70;3.00;;;;;;;19.80;100.00;102155.78;4980775;28;20219;-75
2023/07/09 01:02:46;;;;;;;4.30;2.73;;;;;;;19.79;100.00;102157.50;4976818;28;20224;-75
2023/07/09 01:05:15;;;;;;;5.73;3.10;;;;;;;19.78;100.00;102154.91;4978048;28;20662;-75
2023/07/09 01:07:41;;;;;;;4.67;3.00;;;;;;;19.76;100.00;102154.03;4979597;28;20199;-76
2023/07/09 01:10:08;;;;;;;5.50;2.37;;;;;;;19.73;100.00;102149.69;4979458;28;20230;-75
2023/07/09 01:12:33;;;;;;;3.93;2.50;;;;;;;19.70;100.00;102157.47;4977714;28;20192;-75
2023/07/09 01:14:59;;;;;;;6.60;2.97;;;;;;;19.73;100.00;102143.63;4978573;28;20538;-75
2023/07/09 01:17:29;;;;;;;5.23;2.60;;;;;;;19.66;100.00;102149.69;4985772;28;20286;-75
2023/07/09 01:19:56;;;;;;;3.27;2.70;;;;;;;19.64;100.00;102138.41;4992340;28;20220;-76
2023/07/09 01:22:23;;;;;;;4.57;3.17;;;;;;;19.56;100.00;102138.38;4982140;28;20311;-75
2023/07/09 01:25:04;;;;;;;4.63;3.30;;;;;;;19.53;100.00;102140.94;4982372;28;20278;-75
2023/07/09 01:27:33;;;;;;;3.47;2.87;;;;;;;19.47;100.00;102142.66;4955230;28;20670;-76
2023/07/09 01:30:00;;;;;;;3.67;3.03;;;;;;;19.45;100.00;102136.59;4981160;28;20219;-75
2023/07/09 01:32:26;;;;;;;6.47;3.27;;;;;;;19.45;100.00;102136.59;4974814;28;20195;-75
2023/07/09 01:34:55;;;;;;;5.33;3.00;;;;;;;19.40;100.00;102146.94;4977038;28;20672;-75
2023/07/09 01:37:24;;;;;;;7.20;3.20;;;;;;;19.40;100.00;102151.31;4977074;28;20192;-75
2023/07/09 01:39:51;;;;;;;5.60;2.80;;;;;;;19.46;100.00;102147.00;4979447;28;20215;-76
2023/07/09 01:42:21;;;;;;;3.90;2.70;;;;;;;19.43;100.00;102141.78;4976525;28;20227;-75
2023/07/09 01:44:47;;;;;;;5.73;3.10;;;;;;;19.40;100.00;102143.50;4980918;28;20223;-76
2023/07/09 01:47:13;;;;;;;5.00;2.67;;;;;;;19.40;100.00;102138.31;4976546;28;20203;-75
2023/07/09 01:49:39;;;;;;;3.73;2.97;;;;;;;19.38;100.00;102127.91;4983119;28;20212;-76
2023/07/09 01:52:08;;;;;;;4.57;3.00;;;;;;;19.33;100.00;102132.22;4979461;28;20822;-75
2023/07/09 01:54:37;;;;;;;4.97;3.20;;;;;;;19.31;100.00;102122.69;4972124;28;20650;-74
2023/07/09 01:57:22;;;;;;;3.57;3.10;;;;;;;19.29;100.00;102181.53;4978208;28;20698;-75
2023/07/09 01:59:54;;;;;;;5.47;2.83;;;;;;;19.30;100.00;102139.97;4976871;28;20218;-75
2023/07/09 02:02:25;;;;;;;4.70;2.77;;;;;;;19.30;100.00;102121.78;4962101;28;20698;-74
2023/07/09 02:04:53;;;;;;;4.73;2.97;;;;;;;19.29;100.00;102132.19;4994392;28;20235;-75
2023/07/09 02:07:19;;;;;;;4.97;3.07;;;;;;;19.20;100.00;102142.53;4976241;28;20214;-75
2023/07/09 02:09:45;;;;;;;5.63;2.87;;;;;;;19.22;100.00;102131.31;4973065;28;20262;-75
2023/07/09 02:12:11;;;;;;;3.90;2.70;;;;;;;19.14;100.00;102142.47;4974808;28;20641;-75
2023/07/09 02:14:38;;;;;;;4.20;2.87;;;;;;;19.03;100.00;102151.94;4960590;28;20200;-75
2023/07/09 02:17:04;;;;;;;3.47;3.00;;;;;;;18.87;100.00;102155.28;4983917;28;20202;-75
2023/07/09 02:19:30;;;;;;;6.07;3.20;;;;;;;18.87;100.00;102150.09;4968200;28;20211;-74
2023/07/09 02:21:57;;;;;;;3.33;2.60;;;;;;;18.89;100.00;102154.44;4979980;28;20212;-75
2023/07/09 02:24:24;;;;;;;5.60;2.97;;;;;;;18.81;100.00;102145.75;4974991;28;20693;-75
2023/07/09 02:26:58;;;;;;;4.60;2.90;;;;;;;18.81;100.00;102139.66;4976196;28;20196;-75
2023/07/09 02:29:25;;;;;;;5.07;2.90;;;;;;;18.78;100.00;102152.63;4964795;28;20208;-75
2023/07/09 02:31:52;;;;;;;5.77;2.90;;;;;;;18.77;100.00;102154.38;4986255;28;20239;-75
2023/07/09 02:34:18;;;;;;;3.83;3.10;;;;;;;18.77;100.00;102140.50;4976270;28;20196;-75
2023/07/09 02:36:45;;;;;;;3.77;2.70;;;;;;;18.73;100.00;102139.63;4982414;28;20632;-75
2023/07/09 02:39:12;;;;;;;4.03;2.83;;;;;;;18.73;100.00;102123.16;4974902;28;20316;-75
2023/07/09 02:41:39;;;;;;;4.87;2.73;;;;;;;18.77;100.00;102124.94;4972404;28;20675;-75
2023/07/09 02:44:04;;;;;;;4.77;2.87;;;;;;;18.75;100.00;102121.47;4982066;28;20663;-75
2023/07/09 02:46:30;;;;;;;5.30;3.00;;;;;;;18.76;100.00;102118.91;4973361;28;20207;-74
2023/07/09 02:48:56;;;;;;;5.33;3.20;;;;;;;18.75;100.00;102121.47;4977801;28;20940;-75
2023/07/09 02:51:21;;;;;;;4.60;3.07;;;;;;;18.70;100.00;102118.81;4973291;28;21007;-74
2023/07/09 02:53:48;;;;;;;4.27;3.10;;;;;;;18.69;100.00;102119.69;4976237;28;20223;-74
2023/07/09 02:56:13;;;;;;;5.37;3.07;;;;;;;18.64;100.00;102138.69;4974369;28;20188;-74
2023/07/09 02:58:39;;;;;;;4.40;3.07;;;;;;;18.61;100.00;102121.34;4973994;28;20720;-75
2023/07/09 03:01:05;;;;;;;3.37;2.70;;;;;;;18.61;100.00;102123.94;4971490;28;20227;-74
2023/07/09 03:03:31;;;;;;;4.77;3.03;;;;;;;18.59;100.00;102125.69;4982288;28;20631;-75
2023/07/09 03:05:57;;;;;;;4.57;3.00;;;;;;;18.52;100.00;102136.00;4981846;28;20210;-74
2023/07/09 03:08:22;;;;;;;3.60;2.97;;;;;;;18.49;100.00;102130.78;4963700;28;20219;-75
2023/07/09 03:10:48;;;;;;;3.50;2.70;;;;;;;18.47;100.00;102138.56;4974921;28;20200;-75
2023/07/09 03:13:14;;;;;;;5.67;3.07;;;;;;;18.49;100.00;102130.78;4974395;28;20199;-75
2023/07/09 03:15:39;;;;;;;4.77;3.10;;;;;;;18.46;100.00;102134.22;4973474;28;20279;-76
2023/07/09 03:18:05;;;;;;;3.60;3.13;;;;;;;18.39;100.00;102148.03;4971352;28;20196;-76
2023/07/09 03:20:30;;;;;;;3.77;3.23;;;;;;;18.34;100.00;102156.59;4980944;28;20200;-76
2023/07/09 03:22:56;;;;;;;3.83;2.90;;;;;;;18.25;100.00;102166.88;4980347;28;20279;-75
2023/07/09 03:25:21;;;;;;;3.83;2.73;;;;;;;18.26;100.00;102153.03;4976249;28;20199;-77
2023/07/09 03:27:48;;;;;;;6.00;3.10;;;;;;;18.25;100.00;102161.69;4971162;28;21074;-77
2023/07/09 03:30:13;;;;;;;3.63;2.80;;;;;;;18.24;100.00;102155.59;4983800;28;20281;-76
2023/07/09 03:32:39;;;;;;;4.53;3.00;;;;;;;18.23;100.00;102151.28;4973574;28;20804;-76
2023/07/09 03:35:05;;;;;;;3.27;2.87;;;;;;;18.27;100.00;102144.38;4969662;28;20291;-77
2023/07/09 03:37:30;;;;;;;5.87;2.77;;;;;;;18.26;100.00;102137.47;4978571;28;20188;-76
2023/07/09 03:39:56;;;;;;;3.63;3.27;;;;;;;18.31;100.00;102130.59;4969223;28;20275;-76
2023/07/09 03:42:21;;;;;;;5.57;2.83;;;;;;;18.29;100.00;102122.78;4972443;28;20216;-77
2023/07/09 03:44:47;;;;;;;3.67;2.57;;;;;;;18.35;100.00;102109.94;4977906;28;20559;-76
2023/07/09 03:47:12;;;;;;;4.80;2.80;;;;;;;18.38;100.00;102115.13;4974490;28;20200;-77
2023/07/09 03:49:38;;;;;;;3.17;2.63;;;;;;;18.45;100.00;102095.28;4976729;28;20214;-77
2023/07/09 03:52:04;;;;;;;3.83;2.73;;;;;;;18.37;100.00;102117.75;4976761;28;20192;-77
2023/07/09 03:54:29;;;;;;;3.57;2.90;;;;;;;18.39;100.00;102103.91;4977978;28;20188;-77
2023/07/09 03:56:55;;;;;;;3.10;2.80;;;;;;;18.39;100.00;102105.63;4977380;28;20192;-76
2023/07/09 03:59:20;;;;;;;4.60;3.07;;;;;;;18.40;100.00;102117.75;4973514;28;20334;-77
2023/07/09 04:01:46;;;;;;;4.30;3.20;;;;;;;18.38;100.00;102115.13;4978548;28;20217;-77
2023/07/09 04:04:13;;;;;;;3.80;3.00;;;;;;;18.40;100.00;102131.59;4974981;28;20757;-77
2023/07/09 04:06:39;;;;;;;3.20;2.80;;;;;;;18.44;100.00;102106.53;4970811;28;20219;-77
2023/07/09 04:09:05;;;;;;;4.50;3.13;;;;;;;18.39;100.00;102109.09;4971888;28;20271;-77
2023/07/09 04:11:30;;;;;;;5.20;2.80;;;;;;;18.46;100.00;102107.41;4977509;28;20279;-76
2023/07/09 04:13:56;;;;;;;4.17;3.10;;;;;;;18.43;100.00;102107.41;4973897;28;20240;-77
2023/07/09 04:16:21;;;;;;;4.57;3.03;;;;;;;18.45;100.00;102088.38;4986874;28;20196;-77
2023/07/09 04:18:47;;;;;;;4.23;3.00;;;;;;;18.51;100.00;102080.63;4971477;28;20222;-77
2023/07/09 04:21:13;;;;;;;4.50;2.97;;;;;;;18.52;100.00;102084.13;4968847;28;20200;-77
2023/07/09 04:23:38;;;;;;;5.00;2.67;;;;;;;18.54;100.00;102075.47;4977422;28;20235;-76
2023/07/09 04:26:04;;;;;;;3.20;2.90;;;;;;;18.55;100.00;102076.34;4968147;28;20188;-76
2023/07/09 04:28:30;;;;;;;5.77;3.17;;;;;;;18.58;100.00;102077.25;4966205;28;20311;-76
2023/07/09 04:30:56;;;;;;;3.90;2.50;;;;;;;18.55;100.00;102079.81;4971619;28;20981;-75
2023/07/09 04:33:22;;;;;;;6.67;2.80;;;;;;;18.61;100.00;102068.59;4986585;28;20284;-75
2023/07/09 04:35:48;;;;;;;3.10;2.57;;;;;;;18.63;100.00;102075.53;4972011;28;20288;-75
2023/07/09 04:38:15;;;;;;;6.80;3.13;;;;;;;18.69;100.00;102096.34;4969793;28;20299;-75
2023/07/09 04:40:40;;;;;;;5.00;3.27;;;;;;;18.71;100.00;102110.22;4979056;28;20636;-75
2023/07/09 04:43:06;;;;;;;3.50;3.20;;;;;;;18.68;100.00;102089.41;4969544;28;20315;-75
2023/07/09 04:45:32;;;;;;;5.23;2.83;;;;;;;18.72;100.00;102085.09;4972087;28;20218;-75
2023/07/09 04:47:57;;;;;;;4.67;3.00;;;;;;;18.77;100.00;102091.19;4974734;28;20280;-75
2023/07/09 04:50:22;;;;;;;3.00;2.40;;;;;;;18.79;100.00;102082.56;4975905;28;20232;-75
2023/07/09 04:52:48;;;;;;;5.03;3.30;;;;;;;18.89;100.00;102093.88;4975519;28;20200;-75
2023/07/09 04:55:13;;;;;;;5.73;3.53;;;;;;;18.89;100.00;102086.09;4988549;28;20200;-76
2023/07/09 04:57:39;;;;;;;6.03;3.30;;;;;;;19.02;100.00;102067.97;4973082;28;20192;-75
2023/07/09 05:00:06;;;;;;;5.50;3.00;;;;;;;19.11;100.00;102082.75;4991901;28;20264;-76
2023/07/09 05:02:32;;;;;;;6.27;3.30;;;;;;;19.20;100.00;102064.59;4975698;28;20227;-75
2023/07/09 05:04:57;;;;;;;4.13;2.83;;;;;;;19.29;100.00;102062.91;4975491;28;20564;-76
2023/07/09 05:07:22;;;;;;;4.50;2.90;;;;;;;19.35;100.00;102062.94;4971797;28;20570;-76
2023/07/09 05:09:48;;;;;;;4.90;2.90;;;;;;;19.47;100.00;102051.69;4985248;28;20701;-76
2023/07/09 05:12:14;;;;;;;5.03;3.13;;;;;;;19.54;100.00;102043.94;4986391;28;20193;-76
2023/07/09 05:14:40;;;;;;;4.83;3.50;;;;;;;19.63;100.00;102049.13;4976293;28;20283;-75
2023/07/09 05:17:06;;;;;;;5.87;3.30;;;;;;;19.75;100.00;102059.56;4987732;28;20197;-76
2023/07/09 05:19:33;;;;;;;5.47;3.00;;;;;;;19.84;100.00;102054.38;4971664;28;20228;-75
2023/07/09 05:21:58;;;;;;;4.70;3.23;;;;;;;19.92;100.00;102042.25;4973663;28;20234;-75
2023/07/09 05:24:24;;;;;;;4.23;3.00;;;;;;;20.02;100.00;102050.91;4980250;28;20200;-76
2023/07/09 05:26:49;;;;;;;3.27;2.97;;;;;;;20.12;100.00;102050.06;4974610;28;20709;-76
2023/07/09 05:29:15;;;;;;;4.10;3.33;;;;;;;20.20;100.00;102043.13;4972660;28;20216;-76
2023/07/09 05:31:41;;;;;;;4.47;2.90;;;;;;;20.29;97.30;102030.13;4984695;28;20200;-76
2023/07/09 05:34:08;;;;;;;3.87;2.97;;;;;;;20.42;100.00;102037.06;4973743;28;20637;-76
2023/07/09 05:36:33;;;;;;;3.80;3.00;;;;;;;20.45;97.75;102034.47;4971506;28;20201;-76
2023/07/09 05:38:59;;;;;;;4.60;3.13;;;;;;;20.60;98.90;102031.81;4991488;28;20215;-76
2023/07/09 05:41:24;;;;;;;4.40;3.30;;;;;;;20.73;97.66;102034.38;4969981;28;20250;-76
2023/07/09 05:43:52;;;;;;;4.77;3.30;;;;;;;20.82;98.10;102034.34;4975162;28;20196;-75
2023/07/09 05:46:18;;;;;;;3.80;3.20;;;;;;;20.87;96.88;102023.91;4975802;28;20642;-76
2023/07/09 05:48:44;;;;;;;4.00;3.30;;;;;;;21.02;98.16;102034.31;4974086;28;20224;-76
2023/07/09 05:51:09;;;;;;;5.43;3.13;;;;;;;21.11;94.65;102018.63;4987178;28;20304;-75
2023/07/09 05:53:35;;;;;;;5.17;3.20;;;;;;;21.16;91.42;102006.44;4973600;28;20184;-75
2023/07/09 05:56:01;;;;;;;4.50;3.10;;;;;;;21.23;88.72;102005.56;4973695;28;20219;-75
2023/07/09 05:58:26;;;;;;;3.87;3.27;;;;;;;21.39;95.32;102020.22;4982566;28;20231;-75
2023/07/09 06:00:57;;;;;;;6.83;3.53;;;;;;;21.55;91.68;102008.81;4977068;28;20572;-76
2023/07/09 06:03:25;;;;;;;3.63;3.13;;;;;;;21.70;91.64;102003.53;4980602;28;20228;-76
2023/07/09 06:05:50;;;;;;;3.53;3.13;;;;;;;21.86;90.53;101999.91;4972404;28;20555;-76
2023/07/09 06:08:17;;;;;;;3.53;3.17;;;;;;;21.95;95.36;102016.38;4972302;28;20196;-76
2023/07/09 06:11:00;;;;;;;5.27;3.30;;;;;;;22.05;92.31;102004.97;4981457;28;20204;-75
2023/07/09 06:13:27;;;;;;;4.83;3.43;;;;;;;22.17;91.81;101998.78;4975808;28;20193;-76
2023/07/09 06:15:54;;;;;;;5.63;3.70;;;;;;;22.24;88.41;101992.59;4972291;28;20287;-76
2023/07/09 06:18:22;;;;;;;3.77;3.10;;;;;;;22.30;84.90;101980.34;4972265;28;20223;-76
2023/07/09 06:20:54;;;;;;;5.30;3.10;;;;;;;22.42;86.59;101991.56;4991539;28;20187;-75
2023/07/09 06:23:19;;;;;;;4.07;3.27;;;;;;;22.54;84.20;102009.72;4974646;28;21059;-76
2023/07/09 06:25:47;;;;;;;5.53;3.23;;;;;;;22.61;85.87;102004.41;4969969;28;20203;-76
2023/07/09 06:28:17;;;;;;;6.63;3.10;;;;;;;22.87;87.18;102007.59;4982280;28;20195;-76
2023/07/09 06:30:44;;;;;;;3.80;3.33;;;;;;;22.79;77.61;101969.41;4978390;28;20554;-76
2023/07/09 06:33:10;;;;;;;4.00;3.33;;;;;;;22.88;75.28;101969.28;4972102;28;20192;-76
2023/07/09 06:35:36;;;;;;;5.30;3.87;;;;;;;23.01;80.26;101992.63;4971964;28;20204;-76
2023/07/09 06:38:02;;;;;;;5.43;3.60;;;;;;;23.08;75.06;101969.88;4975821;28;20258;-76
2023/07/09 06:40:28;;;;;;;3.80;3.20;;;;;;;23.19;74.79;101973.22;4970971;28;20196;-76
2023/07/09 06:42:54;;;;;;;4.27;3.53;;;;;;;23.29;77.12;101996.59;4971533;28;20228;-76
2023/07/09 06:45:24;;;;;;;5.03;3.73;;;;;;;23.55;80.87;102004.94;4987254;28;20543;-76
2023/07/09 06:47:49;;;;;;;4.63;3.53;;;;;;;23.61;74.10;101976.06;4974634;28;20196;-76
2023/07/09 06:50:15;;;;;;;5.83;3.87;;;;;;;23.65;74.02;101977.75;4974140;28;20223;-76
2023/07/09 06:52:41;;;;;;;4.27;3.13;;;;;;;23.78;71.84;101978.41;4970195;28;20199;-75
2023/07/09 06:55:07;;;;;;;5.43;3.60;;;;;;;23.93;73.13;101981.69;4989447;28;20215;-74
2023/07/09 06:57:32;;;;;;;4.83;3.43;;;;;;;23.96;71.84;101981.63;4970671;28;20291;-75
2023/07/09 06:59:58;;;;;;;4.50;3.30;;;;;;;23.95;77.20;101995.63;4979729;28;20350;-75
2023/07/09 07:02:24;;;;;;;6.43;3.50;;;;;;;24.11;73.13;101976.13;4970279;28;20585;-75
2023/07/09 07:04:49;;;;;;;4.50;3.57;;;;;;;24.27;72.72;101982.78;4972122;28;20196;-75
2023/07/09 07:07:15;;;;;;;4.70;3.93;;;;;;;24.26;70.94;101973.22;4970694;28;20200;-75
2023/07/09 07:09:40;;;;;;;5.27;3.30;;;;;;;24.25;71.88;101983.72;4970084;28;20220;-74
2023/07/09 07:12:06;;;;;;;6.17;4.00;;;;;;;24.38;73.54;101993.06;4970829;28;20199;-74
2023/07/09 07:14:32;;;;;;;5.03;3.33;;;;;;;24.32;73.14;101990.59;4969995;28;20227;-74
2023/07/09 07:16:57;;;;;;;5.03;3.40;;;;;;;24.24;70.22;101976.75;4970327;28;20210;-74
2023/07/09 07:19:23;;;;;;;4.53;3.37;;;;;;;24.36;70.45;101976.53;4968341;28;20311;-74
2023/07/09 07:21:48;;;;;;;5.37;3.80;;;;;;;24.62;67.84;101962.06;4974752;28;20220;-75
2023/07/09 07:24:14;;;;;;;4.57;3.77;;;;;;;24.75;67.88;101967.91;4970187;28;20258;-74
2023/07/09 07:26:39;;;;;;;4.78;3.83;;;;;;;24.81;65.79;101968.66;4969756;28;20196;-75
2023/07/09 07:29:05;;;;;;;5.85;3.55;;;;;;;24.99;72.09;101983.13;4977268;28;20224;-76
2023/07/09 07:31:30;;;;;;;5.03;3.63;;;;;;;25.18;69.40;101976.59;4965362;28;20223;-74
2023/07/09 07:33:56;;;;;;;4.25;3.50;;;;;;;25.19;66.97;101962.59;4969839;28;20204;-74
2023/07/09 07:36:21;;;;;;;3.83;3.30;;;;;;;25.36;66.33;101957.81;4969187;28;20311;-74
2023/07/09 07:38:47;;;;;;;4.10;3.70;;;;;;;25.39;65.56;101960.38;4969474;28;20672;-74
2023/07/09 07:41:12;;;;;;;6.32;3.72;;;;;;;25.39;64.96;101948.16;4976795;28;20204;-74
2023/07/09 07:43:38;;;;;;;5.78;3.75;;;;;;;25.51;65.90;101965.34;4964468;28;21030;-74
2023/07/09 07:46:03;;;;;;;5.22;4.10;;;;;;;25.39;65.46;101960.38;4969570;28;20200;-73
2023/07/09 07:48:29;;;;;;;3.72;3.33;;;;;;;25.63;64.44;101971.16;4973431;28;20254;-75
2023/07/09 07:51:04;;;;;;;4.15;3.63;;;;;;;25.69;64.01;101962.28;4967832;28;20269;-75
2023/07/09 07:53:32;;;;;;;4.97;4.22;;;;;;;25.73;61.14;101954.28;4970364;28;20239;-75
2023/07/09 07:55:58;;;;;;;5.20;3.75;;;;;;;25.89;60.82;101952.13;4984342;28;20906;-75
2023/07/09 07:58:23;;;;;;;7.35;4.03;;;;;;;25.86;61.80;101962.72;4969156;28;20215;-77
2023/07/09 08:00:49;;;;;;;4.15;3.63;;;;;;;25.98;61.16;101960.69;4970892;28;20199;-74
2023/07/09 08:03:14;;;;;;;5.20;4.00;;;;;;;25.98;58.92;101952.81;4967157;28;20251;-75
2023/07/09 08:05:40;;;;;;;6.90;3.88;;;;;;;26.16;59.87;101948.81;4967298;28;20196;-75
2023/07/09 08:08:05;;;;;;;5.72;3.63;;;;;;;26.31;64.24;101977.31;4968699;28;20240;-75
2023/07/09 08:10:31;;;;;;;6.53;4.00;;;;;;;26.52;60.77;101955.69;4967376;28;20262;-75
2023/07/09 08:12:57;;;;;;;3.85;3.50;;;;;;;26.71;59.77;101952.50;4968386;28;20204;-75
2023/07/09 08:15:26;;;;;;;4.90;3.80;;;;;;;26.90;59.60;101942.31;4968747;28;20207;-75
2023/07/09 08:17:51;;;;;;;4.88;4.00;;;;;;;27.00;57.37;101935.88;4969140;28;20196;-75
2023/07/09 08:20:17;;;;;;;4.85;4.15;;;;;;;26.99;57.22;101944.66;4968634;28;20218;-75
2023/07/09 08:22:43;;;;;;;6.60;3.85;;;;;;;27.04;61.27;101969.94;4970552;28;20215;-75
2023/07/09 08:25:08;;;;;;;7.13;4.30;;;;;;;27.31;55.06;101928.78;4974986;28;20204;-75
2023/07/09 08:27:34;;;;;;;5.97;3.67;;;;;;;27.64;58.99;101946.97;4976854;28;20196;-75
2023/07/09 08:30:00;;;;;;;5.28;3.83;;;;;;;27.78;57.47;101931.56;4990773;28;20299;-75
2023/07/09 08:32:25;;;;;;;5.15;3.95;;;;;;;27.88;54.15;101924.22;4974717;28;20286;-75
2023/07/09 08:34:51;;;;;;;4.10;3.70;;;;;;;27.57;52.92;101912.97;4972900;28;20259;-75
2023/07/09 08:37:16;;;;;;;5.60;4.18;;;;;;;27.40;54.20;101928.47;4976300;28;20278;-75
2023/07/09 08:39:41;;;;;;;4.45;4.05;;;;;;;27.95;56.79;101944.19;4976235;28;20686;-75
2023/07/09 08:42:11;;;;;;;6.38;4.45;;;;;;;28.40;59.32;101971.56;4972495;28;20246;-74
2023/07/09 08:44:55;;;;;;;5.65;4.00;;;;;;;28.53;58.12;101952.63;4972496;28;20291;-75
2023/07/09 08:47:40;;;;;;;4.68;3.97;;;;;;;28.54;54.17;101921.81;4983849;28;20577;-75
2023/07/09 08:50:12;;;;;;;4.30;3.90;;;;;;;28.64;52.65;101912.69;4981944;28;20381;-75
2023/07/09 08:52:41;;;;;;;5.88;3.63;;;;;;;28.90;54.19;101926.56;4963728;28;20219;-75
2023/07/09 08:55:13;;;;;;;4.38;3.90;;;;;;;29.08;54.22;101919.75;4974981;28;20651;-75
2023/07/09 08:57:42;;;;;;;5.15;3.97;;;;;;;29.11;49.87;101891.44;4974760;28;20677;-75
2023/07/09 09:00:34;;;;;;;5.97;4.32;;;;;;;29.06;51.04;101911.03;4972743;28;20263;-75
2023/07/09 09:03:05;;;;;;;4.82;4.30;;;;;;;29.14;51.73;101912.44;4984721;28;20216;-75
2023/07/09 09:05:36;;;;;;;4.20;3.60;;;;;;;29.28;50.31;101893.38;4973295;28;20654;-75
2023/07/09 09:08:11;;;;;;;5.82;4.03;;;;;;;29.53;51.30;101909.97;4972411;28;20688;-75
2023/07/09 09:10:44;;;;;;;3.92;3.63;;;;;;;29.81;50.17;101903.50;4971279;28;20222;-75
2023/07/09 09:13:15;;;;;;;6.03;4.53;;;;;;;29.62;49.31;101891.97;4972322;28;20645;-75
2023/07/09 09:15:46;;;;;;;4.18;3.78;;;;;;;29.97;48.69;101893.06;4981275;28;20196;-75
2023/07/09 09:18:20;;;;;;;5.40;3.78;;;;;;;29.99;52.00;101929.09;4978978;28;20231;-75
2023/07/09 09:20:53;;;;;;;5.88;3.90;;;;;;;30.18;48.41;101894.81;4971611;28;20211;-75
2023/07/09 09:23:18;;;;;;;5.90;4.22;;;;;;;30.51;48.69;101893.28;4971916;28;20732;-75
2023/07/09 09:25:56;;;;;;;6.00;4.13;;;;;;;30.42;49.46;101901.63;4971983;28;20192;-75
2023/07/09 09:28:24;;;;;;;5.47;3.97;;;;;;;30.75;49.30;101915.13;4972361;28;20238;-75
2023/07/09 09:30:50;;;;;;;4.50;3.85;;;;;;;30.85;47.90;101882.00;4986051;28;20200;-75
2023/07/09 09:33:18;;;;;;;4.10;3.25;;;;;;;31.06;49.08;101902.13;4975481;28;20212;-75
2023/07/09 09:35:44;;;;;;;4.60;4.20;;;;;;;30.73;45.57;101879.94;4972647;28;20196;-75
2023/07/09 09:38:17;;;;;;;4.80;4.10;;;;;;;31.07;47.35;101896.78;4971599;28;20278;-75
2023/07/09 09:40:42;;;;;;;5.28;4.40;;;;;;;31.53;50.06;101930.69;4974144;28;20286;-75
2023/07/09 09:43:19;;;;;;;3.85;3.55;;;;;;;31.61;46.94;101894.06;4972037;28;20311;-75
2023/07/09 09:45:46;;;;;;;4.18;3.78;;;;;;;31.67;46.94;101885.81;4958745;28;20202;-75
2023/07/09 09:48:18;;;;;;;7.95;3.97;;;;;;;31.62;47.54;101892.31;4973942;28;20200;-75
2023/07/09 09:50:46;;;;;;;5.88;4.05;;;;;;;31.85;47.15;101895.50;4970892;28;20192;-75
2023/07/09 09:53:20;;;;;;;4.20;3.80;;;;;;;31.81;46.78;101885.16;4974437;28;20223;-75
2023/07/09 09:55:45;;;;;;;6.05;4.00;;;;;;;31.70;45.43;101885.66;4971194;28;20275;-75
2023/07/09 09:58:15;;;;;;;4.97;3.80;;;;;;;31.66;44.65;101872.63;4973589;28;20846;-75
2023/07/09 10:00:47;;;;;;;6.57;3.75;;;;;;;31.77;46.45;101894.19;4972167;28;20195;-75
2023/07/09 10:03:13;;;;;;;4.55;4.15;;;;;;;31.71;45.15;101875.94;4975037;28;20263;-75
2023/07/09 10:05:44;;;;;;;4.22;3.83;;;;;;;31.92;46.20;101891.59;4971208;28;20193;-75
2023/07/09 10:08:32;;;;;;;6.45;4.20;;;;;;;32.30;47.25;101906.38;4971215;28;20200;-75
2023/07/09 10:11:11;;;;;;;5.80;4.03;;;;;;;32.11;44.74;101876.44;4974140;28;20241;-75
2023/07/09 10:13:43;;;;;;;5.05;4.05;;;;;;;32.23;44.38;101883.72;4971190;28;20199;-75
2023/07/09 10:16:35;;;;;;;4.30;3.90;;;;;;;32.72;45.64;101895.19;4972463;28;20211;-74
2023/07/09 10:19:30;;;;;;;5.32;4.20;;;;;;;32.47;42.30;101861.22;4976499;28;20220;-75
2023/07/09 10:22:03;;;;;;;4.65;4.05;;;;;;;32.55;42.65;101868.75;4978311;28;20236;-75
2023/07/09 10:24:41;;;;;;;5.07;4.15;;;;;;;32.90;43.30;101889.75;4972779;28;20212;-74
2023/07/09 10:27:22;;;;;;;5.57;4.03;;;;;;;32.87;41.81;101855.41;4980508;28;20199;-75
2023/07/09 10:30:13;;;;;;;5.13;4.38;;;;;;;32.98;43.68;101878.69;4972287;28;20223;-75
2023/07/09 10:32:55;;;;;;;4.97;4.10;;;;;;;33.03;43.65;101881.94;4970572;28;20247;-75
2023/07/09 10:35:48;;;;;;;4.68;4.28;;;;;;;33.34;42.34;101861.50;4973083;28;20289;-75
2023/07/09 10:38:35;;;;;;;7.05;4.50;;;;;;;32.82;40.49;101853.97;4974667;28;20220;-74
2023/07/09 10:41:05;;;;;;;5.20;3.95;;;;;;;32.86;41.31;101872.28;4971574;28;20220;-75
2023/07/09 10:43:33;;;;;;;8.25;4.78;;;;;;;33.24;40.18;101855.00;4973088;28;20661;-74
2023/07/09 10:46:05;;;;;;;5.30;4.25;;;;;;;33.27;39.28;101848.66;4971897;28;20192;-75
2023/07/09 10:48:37;;;;;;;4.78;4.00;;;;;;;33.06;40.88;101872.00;4970071;28;20259;-75
2023/07/09 10:51:07;;;;;;;4.28;3.85;;;;;;;33.45;40.27;101893.66;4980228;28;21086;-74
2023/07/09 10:53:46;;;;;;;6.10;4.80;;;;;;;33.64;38.89;101866.81;4971388;28;20200;-75
2023/07/09 10:56:15;;;;;;;4.53;3.80;;;;;;;33.04;37.87;101857.97;4970446;28;20271;-75
2023/07/09 10:58:50;;;;;;;5.40;4.90;;;;;;;33.27;36.79;101860.13;4970614;28;20218;-74
2023/07/09 11:01:19;;;;;;;5.07;4.30;;;;;;;33.27;36.58;101848.66;4974390;28;20204;-75
2023/07/09 11:03:56;;;;;;;6.80;4.47;;;;;;;33.51;36.26;101836.63;4970148;28;20263;-75
2023/07/09 11:06:46;;;;;;;4.95;4.00;;;;;;;33.41;35.98;101833.63;4984921;28;20295;-74
2023/07/09 11:09:34;;;;;;;4.10;3.78;;;;;;;33.47;36.08;101832.44;4973033;28;20260;-75
2023/07/09 11:12:06;;;;;;;7.45;4.47;;;;;;;33.51;35.69;101840.13;4973109;28;20180;-75
2023/07/09 11:14:47;;;;;;;4.35;3.95;;;;;;;33.62;35.59;101840.34;4970702;28;20263;-75
2023/07/09 11:17:19;;;;;;;4.65;4.22;;;;;;;33.94;36.86;101838.41;4982804;28;20199;-75
2023/07/09 11:19:46;;;;;;;5.47;4.50;;;;;;;33.37;35.31;101840.09;4979605;28;20222;-74
2023/07/09 11:22:38;;;;;;;4.55;4.15;;;;;;;33.83;36.06;101844.38;4971431;28;20295;-75
2023/07/09 11:25:10;;;;;;;4.53;4.05;;;;;;;34.00;34.68;101828.25;4969830;28;20259;-75
2023/07/09 11:27:48;;;;;;;4.40;4.00;;;;;;;34.30;34.52;101821.00;4969428;28;20204;-75
2023/07/09 11:30:25;;;;;;;5.65;4.47;;;;;;;33.98;35.45;101831.94;4970145;28;20208;-76